Time;durP1;ratioP1;P1;durP2;ratioP2;P2;SDS_P1;SDS_P2;PMS_P1;PMS_P2;Temp;Humidity;BMP_temperature;BMP_pressure;BME280_temperature;BME280_humidity;BME280_pressure;Samples;Min_cycle;Max_cycle;Signal;HPM_P1;HPM_P2
2023/12/29 00:01:02;;;;;;;20.97;7.63;;;;;2.70;97043.00;;;;5015391;28;20430;-69
2023/12/29 00:03:51;;;;;;;11.67;4.50;;;;;2.10;97025.00;;;;5019415;28;20432;-69
2023/12/29 00:06:40;;;;;;;12.10;4.67;;;;;2.30;97023.00;;;;5021335;28;20448;-70
2023/12/29 00:09:40;;;;;;;13.57;4.60;;;;;2.10;97024.00;;;;5025117;28;20827;-69
2023/12/29 00:12:29;;;;;;;14.73;4.80;;;;;1.80;97023.00;;;;5036082;28;20436;-71
2023/12/29 00:15:20;;;;;;;11.03;3.93;;;;;1.70;97019.00;;;;5032279;28;20435;-70
2023/12/29 00:18:09;;;;;;;22.73;7.33;;;;;2.10;97022.00;;;;5032229;28;20464;-70
2023/12/29 00:20:59;;;;;;;12.23;4.17;;;;;2.30;97023.00;;;;5032336;28;20994;-69
2023/12/29 00:23:48;;;;;;;10.93;3.77;;;;;1.90;97020.00;;;;5023036;28;20427;-71
2023/12/29 00:26:37;;;;;;;10.63;3.77;;;;;2.40;97013.00;;;;5028077;28;20432;-69
2023/12/29 00:29:32;;;;;;;11.67;3.83;;;;;2.60;97014.00;;;;5022912;28;20452;-69
2023/12/29 00:32:23;;;;;;;11.53;4.20;;;;;2.90;97017.00;;;;5025486;28;20794;-68
2023/12/29 00:35:12;;;;;;;22.23;6.97;;;;;3.10;97019.00;;;;5029343;28;20431;-69
2023/12/29 00:38:01;;;;;;;14.50;4.93;;;;;2.90;97029.00;;;;5027709;28;20451;-68
2023/12/29 00:40:50;;;;;;;14.77;4.80;;;;;2.20;97013.00;;;;5030431;28;20456;-68
2023/12/29 00:43:39;;;;;;;19.30;6.37;;;;;2.20;97014.00;;;;5025347;28;20431;-70
2023/12/29 00:46:28;;;;;;;10.57;4.00;;;;;2.50;97035.00;;;;5033968;28;20910;-70
2023/12/29 00:49:19;;;;;;;20.33;6.30;;;;;1.90;97032.00;;;;5030923;28;20830;-70
2023/12/29 00:52:08;;;;;;;26.40;8.00;;;;;1.70;97027.00;;;;5027158;28;20468;-70
2023/12/29 00:54:57;;;;;;;11.77;4.13;;;;;2.30;97031.00;;;;5033648;28;20802;-70
2023/12/29 00:57:46;;;;;;;12.73;4.30;;;;;2.60;97035.00;;;;5030589;28;20946;-70
2023/12/29 01:00:35;;;;;;;26.80;8.43;;;;;2.60;97035.00;;;;5019099;28;20864;-70
2023/12/29 01:03:24;;;;;;;12.13;4.27;;;;;2.30;97038.00;;;;5027727;28;20511;-70
2023/12/29 01:06:15;;;;;;;11.53;3.90;;;;;1.70;97027.00;;;;5035301;28;20439;-71
2023/12/29 01:09:04;;;;;;;21.03;6.50;;;;;1.40;97023.00;;;;5031390;28;20831;-68
2023/12/29 01:11:53;;;;;;;9.53;3.33;;;;;2.10;97037.00;;;;5037306;28;20451;-68
2023/12/29 01:14:43;;;;;;;10.73;3.63;;;;;2.40;97036.00;;;;5024896;28;20944;-69
2023/12/29 01:17:32;;;;;;;22.53;7.10;;;;;1.60;97021.00;;;;5027116;28;20444;-72
2023/12/29 01:20:21;;;;;;;11.43;3.80;;;;;2.30;97036.00;;;;5040430;28;20889;-70
2023/12/29 01:23:11;;;;;;;23.23;7.00;;;;;2.40;97048.00;;;;5035742;28;20798;-70
2023/12/29 01:26:00;;;;;;;9.77;3.40;;;;;2.10;97042.00;;;;5034578;28;20436;-71
2023/12/29 01:28:50;;;;;;;11.50;4.00;;;;;2.50;97032.00;;;;5025223;28;20470;-69
2023/12/29 01:31:39;;;;;;;11.60;4.20;;;;;2.80;97038.00;;;;5037972;28;20424;-70
2023/12/29 01:34:32;;;;;;;10.47;3.57;;;;;2.70;97038.00;;;;5029318;28;20420;-69
2023/12/29 01:37:21;;;;;;;13.43;4.57;;;;;3.00;97042.00;;;;5030413;28;20432;-69
2023/12/29 01:40:13;;;;;;;25.27;7.93;;;;;2.30;97037.00;;;;5027109;28;20461;-70
2023/12/29 01:43:02;;;;;;;17.30;5.63;;;;;1.90;97040.00;;;;5025041;28;20436;-69
2023/12/29 01:45:51;;;;;;;14.03;5.03;;;;;2.20;97030.00;;;;5032227;28;20424;-70
2023/12/29 01:48:43;;;;;;;6.93;2.73;;;;;1.90;97035.00;;;;5029852;28;20452;-70
2023/12/29 01:51:32;;;;;;;10.40;3.67;;;;;1.90;97023.00;;;;5027111;28;20965;-69
2023/12/29 01:54:22;;;;;;;11.13;3.73;;;;;2.40;97028.00;;;;5035199;28;20437;-69
2023/12/29 01:57:13;;;;;;;20.60;6.37;;;;;2.20;97021.00;;;;5033561;28;20968;-72
2023/12/29 02:00:03;;;;;;;14.60;4.97;;;;;2.00;97015.00;;;;5034207;28;20463;-70
2023/12/29 02:02:52;;;;;;;5.03;1.93;;;;;2.70;97017.00;;;;5025918;28;20447;-70
2023/12/29 02:05:41;;;;;;;10.40;3.27;;;;;3.10;97011.00;;;;5030128;28;20444;-70
2023/12/29 02:08:31;;;;;;;11.97;3.73;;;;;3.00;97015.00;;;;5023743;28;20455;-70
2023/12/29 02:11:20;;;;;;;5.03;1.73;;;;;2.50;96998.00;;;;5035354;28;20444;-71
2023/12/29 02:14:11;;;;;;;15.60;4.83;;;;;2.60;97001.00;;;;5027785;28;20428;-70
2023/12/29 02:17:06;;;;;;;9.40;3.10;;;;;1.80;96984.00;;;;5034496;28;20435;-71
2023/12/29 02:19:55;;;;;;;8.93;2.90;;;;;1.60;96996.00;;;;5035263;28;21175;-70
2023/12/29 02:22:44;;;;;;;10.67;3.33;;;;;1.20;96991.00;;;;5029219;28;20439;-72
2023/12/29 02:25:35;;;;;;;11.27;3.73;;;;;1.50;96982.00;;;;5024799;28;20432;-69
2023/12/29 02:28:27;;;;;;;10.67;3.60;;;;;1.90;96985.00;;;;5034713;28;20825;-70
2023/12/29 02:31:19;;;;;;;20.33;6.43;;;;;2.10;96989.00;;;;5032212;28;20420;-69
2023/12/29 02:34:10;;;;;;;19.73;6.33;;;;;1.60;96989.00;;;;5031044;28;20484;-71
2023/12/29 02:37:00;;;;;;;5.40;2.57;;;;;2.10;96996.00;;;;5037509;28;20428;-69
2023/12/29 02:39:49;;;;;;;6.93;2.73;;;;;2.30;97000.00;;;;5032970;28;20446;-69
2023/12/29 02:42:40;;;;;;;12.57;4.70;;;;;2.40;96989.00;;;;5027270;28;20430;-70
2023/12/29 02:45:29;;;;;;;12.03;3.97;;;;;2.00;96978.00;;;;5028340;28;20432;-69
2023/12/29 02:48:18;;;;;;;16.47;5.40;;;;;1.20;96970.00;;;;5033265;28;20450;-72
2023/12/29 02:51:08;;;;;;;17.73;5.87;;;;;1.50;96973.00;;;;5030066;28;20485;-70
2023/12/29 02:53:57;;;;;;;11.77;4.10;;;;;1.60;96976.00;;;;5033614;28;20436;-70
2023/12/29 02:56:47;;;;;;;8.17;3.17;;;;;2.20;96989.00;;;;5027484;28;21162;-71
2023/12/29 02:59:38;;;;;;;4.43;1.93;;;;;2.00;96984.00;;;;5022984;28;20853;-71
2023/12/29 03:02:27;;;;;;;15.33;4.87;;;;;2.40;96999.00;;;;5032522;28;20427;-71
2023/12/29 03:05:16;;;;;;;21.00;6.90;;;;;2.30;96987.00;;;;5026662;28;20947;-72
2023/12/29 03:08:06;;;;;;;21.03;6.63;;;;;2.30;96992.00;;;;5025925;28;20460;-72
2023/12/29 03:10:55;;;;;;;11.33;4.00;;;;;2.50;97002.00;;;;5023711;28;20790;-71
2023/12/29 03:13:44;;;;;;;19.33;6.23;;;;;1.90;96981.00;;;;5026839;28;20444;-71
2023/12/29 03:16:35;;;;;;;12.07;4.40;;;;;1.80;96984.00;;;;5027046;28;20818;-71
2023/12/29 03:19:24;;;;;;;13.30;4.83;;;;;1.80;96974.00;;;;5030394;28;20982;-71
2023/12/29 03:22:13;;;;;;;26.40;8.30;;;;;2.20;96972.00;;;;5025628;28;20456;-70
2023/12/29 03:25:02;;;;;;;10.60;3.93;;;;;2.20;96973.00;;;;5031253;28;20438;-69
2023/12/29 03:27:51;;;;;;;9.23;3.60;;;;;2.20;96975.00;;;;5028002;28;20595;-71
2023/12/29 03:30:40;;;;;;;16.90;5.77;;;;;1.80;96950.00;;;;5028647;28;20428;-69
2023/12/29 03:33:31;;;;;;;21.53;7.37;;;;;2.10;96967.00;;;;5030176;28;20815;-69
2023/12/29 03:36:20;;;;;;;20.23;6.67;;;;;1.50;96949.00;;;;5026550;28;20506;-70
2023/12/29 03:39:09;;;;;;;17.80;5.80;;;;;2.20;96961.00;;;;5026946;28;21156;-70
2023/12/29 03:41:58;;;;;;;6.47;3.30;;;;;2.00;96951.00;;;;5031885;28;20468;-70
2023/12/29 03:44:47;;;;;;;4.97;2.67;;;;;1.70;96943.00;;;;5031381;28;20432;-70
2023/12/29 03:47:37;;;;;;;18.60;6.07;;;;;1.10;96937.00;;;;5030001;28;20957;-70
2023/12/29 03:50:27;;;;;;;14.83;5.03;;;;;1.40;96943.00;;;;5029808;28;20495;-71
2023/12/29 03:53:16;;;;;;;21.87;6.90;;;;;1.10;96936.00;;;;5032284;28;20961;-69
2023/12/29 03:56:06;;;;;;;22.23;7.40;;;;;1.50;96945.00;;;;5032447;28;20440;-70
2023/12/29 03:58:56;;;;;;;14.07;5.00;;;;;1.30;96943.00;;;;5034929;28;20460;-70
2023/12/29 04:01:45;;;;;;;9.13;3.33;;;;;1.40;96944.00;;;;5023332;28;20456;-70
2023/12/29 04:04:37;;;;;;;9.20;3.40;;;;;1.30;96939.00;;;;5024043;28;20428;-69
2023/12/29 04:07:27;;;;;;;12.17;4.20;;;;;1.90;96939.00;;;;5027129;28;20440;-70
2023/12/29 04:10:16;;;;;;;30.80;9.53;;;;;1.80;96934.00;;;;5026489;28;20441;-72
2023/12/29 04:13:06;;;;;;;18.20;6.17;;;;;1.30;96927.00;;;;5026464;28;20773;-72
2023/12/29 04:15:55;;;;;;;13.60;4.40;;;;;1.50;96936.00;;;;5022547;28;20428;-73
2023/12/29 04:18:44;;;;;;;12.83;4.60;;;;;1.70;96943.00;;;;5029085;28;20441;-72
2023/12/29 04:21:33;;;;;;;12.83;4.37;;;;;1.50;96949.00;;;;5026221;28;20539;-72
2023/12/29 04:24:23;;;;;;;11.43;4.13;;;;;1.60;96944.00;;;;5026120;28;20433;-73
2023/12/29 04:27:13;;;;;;;22.97;7.23;;;;;1.40;96946.00;;;;5025182;28;20424;-72
2023/12/29 04:30:02;;;;;;;14.03;4.73;;;;;1.20;96942.00;;;;5027655;28;20455;-71
2023/12/29 04:32:52;;;;;;;11.57;4.40;;;;;1.40;96947.00;;;;5026307;28;20432;-73
2023/12/29 04:35:41;;;;;;;11.77;4.23;;;;;1.60;96948.00;;;;5026990;28;20421;-74
2023/12/29 04:38:30;;;;;;;18.03;6.50;;;;;2.10;96962.00;;;;5029412;28;20463;-73
2023/12/29 04:41:20;;;;;;;17.93;6.30;;;;;1.80;96949.00;;;;5038156;28;20468;-72
2023/12/29 04:44:10;;;;;;;18.00;6.57;;;;;1.80;96948.00;;;;5027925;28;20429;-76
2023/12/29 04:46:59;;;;;;;6.57;3.20;;;;;1.60;96949.00;;;;5031196;28;20428;-72
2023/12/29 04:49:48;;;;;;;12.90;5.37;;;;;2.20;96963.00;;;;5032011;28;20804;-74
2023/12/29 04:52:37;;;;;;;16.10;6.17;;;;;2.00;96950.00;;;;5032055;28;20420;-74
2023/12/29 04:55:26;;;;;;;14.43;5.60;;;;;1.30;96951.00;;;;5030434;28;20431;-73
2023/12/29 04:58:16;;;;;;;22.70;7.40;;;;;1.40;96946.00;;;;5028950;28;20448;-74
2023/12/29 05:01:08;;;;;;;15.73;5.67;;;;;2.10;96952.00;;;;5021040;28;20468;-72
2023/12/29 05:03:57;;;;;;;9.60;3.77;;;;;2.00;96954.00;;;;5028137;28;20813;-73
2023/12/29 05:06:46;;;;;;;12.73;4.87;;;;;2.20;96955.00;;;;5025725;28;20444;-72
2023/12/29 05:09:35;;;;;;;12.83;4.73;;;;;1.60;96959.00;;;;5023754;28;20458;-73
2023/12/29 05:12:25;;;;;;;13.10;4.90;;;;;1.90;96965.00;;;;5028142;28;20435;-72
2023/12/29 05:15:15;;;;;;;15.60;5.77;;;;;2.00;96968.00;;;;5028542;28;20431;-72
2023/12/29 05:18:04;;;;;;;12.87;4.87;;;;;2.00;96974.00;;;;5029044;28;20459;-73
2023/12/29 05:20:55;;;;;;;10.43;4.20;;;;;1.90;96975.00;;;;5029038;28;20433;-73
2023/12/29 05:23:45;;;;;;;16.83;5.77;;;;;1.40;96973.00;;;;5022817;28;20980;-71
2023/12/29 05:26:34;;;;;;;13.53;4.70;;;;;0.90;96971.00;;;;5030162;28;20428;-71
2023/12/29 05:29:24;;;;;;;13.10;5.17;;;;;1.60;96987.00;;;;5031504;28;20818;-73
2023/12/29 05:32:14;;;;;;;29.80;9.90;;;;;1.70;96987.00;;;;5027924;28;20462;-73
2023/12/29 05:35:03;;;;;;;13.07;5.13;;;;;2.00;96992.00;;;;5026440;28;20591;-75
2023/12/29 05:37:53;;;;;;;9.70;4.43;;;;;1.80;96998.00;;;;5029451;28;20464;-72
2023/12/29 05:40:42;;;;;;;26.63;9.30;;;;;1.40;96981.00;;;;5028690;28;20436;-75
2023/12/29 05:43:32;;;;;;;26.10;9.07;;;;;1.80;97007.00;;;;5029874;28;20421;-72
2023/12/29 05:46:21;;;;;;;20.57;8.33;;;;;1.90;96999.00;;;;5032310;28;20444;-72
2023/12/29 05:49:12;;;;;;;26.27;10.30;;;;;2.20;96998.00;;;;5036035;28;20822;-72
2023/12/29 05:52:01;;;;;;;20.30;8.60;;;;;1.70;96991.00;;;;5031528;28;20519;-72
2023/12/29 05:54:50;;;;;;;13.07;6.33;;;;;1.20;96983.00;;;;5031874;28;20510;-74
2023/12/29 05:57:40;;;;;;;26.13;9.80;;;;;1.60;96997.00;;;;5036346;28;20452;-72
2023/12/29 06:00:29;;;;;;;12.40;5.20;;;;;1.40;96984.00;;;;5027034;28;20451;-76
2023/12/29 06:03:18;;;;;;;15.53;6.00;;;;;0.90;96988.00;;;;5034742;28;20472;-72
2023/12/29 06:06:09;;;;;;;18.43;6.77;;;;;0.90;97002.00;;;;5026154;28;20440;-72
2023/12/29 06:08:58;;;;;;;12.17;4.60;;;;;1.10;97001.00;;;;5027761;28;20444;-72
2023/12/29 06:11:47;;;;;;;13.10;5.23;;;;;1.10;97012.00;;;;5024990;28;20428;-72
2023/12/29 06:14:38;;;;;;;4.73;2.60;;;;;1.20;96998.00;;;;5028589;28;20437;-73
2023/12/29 06:17:27;;;;;;;16.63;6.20;;;;;1.30;97001.00;;;;5028096;28;20416;-71
2023/12/29 06:20:16;;;;;;;19.00;6.83;;;;;1.50;97000.00;;;;5028767;28;20437;-70
2023/12/29 06:23:07;;;;;;;11.07;4.50;;;;;1.40;96998.00;;;;5035799;28;20475;-75
2023/12/29 06:25:56;;;;;;;15.40;6.17;;;;;1.70;97009.00;;;;5027812;28;20439;-71
2023/12/29 06:28:45;;;;;;;18.60;7.47;;;;;1.50;97003.00;;;;5032748;28;21179;-72
2023/12/29 06:31:35;;;;;;;14.50;5.87;;;;;1.30;97005.00;;;;5026904;28;20439;-74
2023/12/29 06:34:24;;;;;;;15.37;6.47;;;;;1.20;96999.00;;;;5028529;28;20429;-73
2023/12/29 06:37:13;;;;;;;24.20;8.10;;;;;1.20;97011.00;;;;5027015;28;20425;-72
2023/12/29 06:40:04;;;;;;;11.87;5.20;;;;;1.00;97012.00;;;;5034246;28;20977;-72
2023/12/29 06:42:53;;;;;;;12.80;5.40;;;;;0.70;97000.00;;;;5026984;28;20572;-73
2023/12/29 06:45:42;;;;;;;15.73;6.20;;;;;1.50;97015.00;;;;5026163;28;20934;-72
2023/12/29 06:48:32;;;;;;;17.57;7.50;;;;;1.30;97021.00;;;;5026702;28;20452;-71
2023/12/29 06:51:22;;;;;;;20.07;7.57;;;;;1.30;97016.00;;;;5021489;28;20456;-72
2023/12/29 06:54:11;;;;;;;19.90;8.53;;;;;1.00;97019.00;;;;5031040;28;20424;-71
2023/12/29 06:57:02;;;;;;;13.60;6.53;;;;;1.80;97020.00;;;;5024194;28;20433;-73
2023/12/29 06:59:51;;;;;;;14.03;7.80;;;;;2.00;97021.00;;;;5030915;28;20810;-72
2023/12/29 07:02:41;;;;;;;17.73;9.57;;;;;2.30;97025.00;;;;5025467;28;20984;-73
2023/12/29 07:05:30;;;;;;;14.27;9.70;;;;;2.10;97021.00;;;;5035059;28;20609;-72
2023/12/29 07:08:19;;;;;;;28.20;14.03;;;;;1.80;97022.00;;;;5018710;28;20508;-72
2023/12/29 07:11:12;;;;;;;28.87;13.73;;;;;1.60;97015.00;;;;5024676;28;20736;-72
2023/12/29 07:14:02;;;;;;;14.73;7.93;;;;;1.40;97023.00;;;;5023386;28;20425;-73
2023/12/29 07:16:52;;;;;;;19.33;10.30;;;;;1.60;97026.00;;;;5025516;28;20432;-72
2023/12/29 07:19:41;;;;;;;16.77;11.53;;;;;1.10;97025.00;;;;5026521;28;20436;-74
2023/12/29 07:22:30;;;;;;;21.77;13.13;;;;;0.80;97023.00;;;;5023730;28;20460;-73
2023/12/29 07:25:20;;;;;;;28.10;14.17;;;;;1.00;97028.00;;;;5025825;28;20444;-72
2023/12/29 07:28:09;;;;;;;31.33;14.73;;;;;1.20;97032.00;;;;5020235;28;20457;-75
2023/12/29 07:30:59;;;;;;;15.63;11.57;;;;;1.10;97033.00;;;;5023647;28;20424;-73
2023/12/29 07:33:49;;;;;;;14.73;10.00;;;;;1.30;97027.00;;;;5029804;28;20497;-73
2023/12/29 07:36:40;;;;;;;18.83;13.43;;;;;1.30;97027.00;;;;5028028;28;20428;-73
2023/12/29 07:39:29;;;;;;;19.50;13.53;;;;;0.90;97030.00;;;;5025638;28;20949;-72
2023/12/29 07:42:18;;;;;;;32.80;17.73;;;;;0.90;97038.00;;;;5025055;28;20448;-73
2023/12/29 07:45:09;;;;;;;25.07;16.93;;;;;1.60;97036.00;;;;5031666;28;20434;-72
2023/12/29 07:47:59;;;;;;;28.70;19.57;;;;;1.40;97032.00;;;;5027840;28;21065;-73
2023/12/29 07:50:49;;;;;;;20.20;17.80;;;;;1.40;97026.00;;;;5026511;28;20989;-73
2023/12/29 07:53:38;;;;;;;36.67;21.53;;;;;1.90;97053.00;;;;5025070;28;20845;-73
2023/12/29 07:56:27;;;;;;;35.87;27.90;;;;;1.90;97047.00;;;;5022176;28;20451;-74
2023/12/29 07:59:16;;;;;;;50.43;32.63;;;;;2.10;97044.00;;;;5024985;28;20445;-73
2023/12/29 08:02:05;;;;;;;53.97;37.00;;;;;2.40;97041.00;;;;5020168;28;20935;-73
2023/12/29 08:04:56;;;;;;;51.57;35.97;;;;;2.20;97035.00;;;;5024708;28;20451;-72
2023/12/29 08:07:45;;;;;;;62.07;40.93;;;;;1.90;97045.00;;;;5029646;28;21026;-74
2023/12/29 08:10:34;;;;;;;61.43;42.60;;;;;1.70;97027.00;;;;5028826;28;20431;-71
2023/12/29 08:13:24;;;;;;;40.77;30.20;;;;;1.60;97024.00;;;;5026451;28;20444;-74
2023/12/29 08:16:13;;;;;;;60.23;38.07;;;;;2.10;97017.00;;;;5031386;28;20471;-73
2023/12/29 08:19:03;;;;;;;45.73;35.57;;;;;2.40;97016.00;;;;5034133;28;20463;-72
2023/12/29 08:21:54;;;;;;;49.90;38.10;;;;;2.60;97014.00;;;;5028165;28;20856;-72
2023/12/29 08:24:43;;;;;;;49.50;36.53;;;;;2.80;97015.00;;;;5028320;28;20473;-71
2023/12/29 08:27:32;;;;;;;57.30;41.13;;;;;3.00;97030.00;;;;5031151;28;20856;-72
2023/12/29 08:30:22;;;;;;;65.17;42.67;;;;;3.10;97025.00;;;;5035877;28;20440;-72
2023/12/29 08:33:12;;;;;;;70.03;47.60;;;;;2.80;97017.00;;;;5029016;28;20439;-73
2023/12/29 08:36:03;;;;;;;36.30;31.83;;;;;3.10;97033.00;;;;5023499;28;20432;-73
2023/12/29 08:38:54;;;;;;;44.80;36.33;;;;;2.80;97029.00;;;;5029256;28;20452;-74
2023/12/29 08:41:43;;;;;;;61.10;44.20;;;;;2.80;97023.00;;;;5026314;28;20444;-74
2023/12/29 08:44:32;;;;;;;53.53;40.47;;;;;3.20;97030.00;;;;5022979;28;20460;-72
2023/12/29 08:47:22;;;;;;;59.40;42.63;;;;;3.70;97027.00;;;;5022262;28;20440;-72
2023/12/29 08:50:11;;;;;;;54.37;40.70;;;;;3.60;97017.00;;;;5029004;28;20791;-73
2023/12/29 08:53:00;;;;;;;41.87;31.53;;;;;3.60;97034.00;;;;5028109;28;20452;-74
2023/12/29 08:55:51;;;;;;;39.00;30.93;;;;;3.10;97040.00;;;;5028810;28;20435;-74
2023/12/29 08:58:40;;;;;;;28.57;25.57;;;;;3.20;97027.00;;;;5023961;28;20463;-72
2023/12/29 09:01:30;;;;;;;26.77;24.17;;;;;2.80;97029.00;;;;5026054;28;20455;-72
2023/12/29 09:04:19;;;;;;;53.77;38.53;;;;;3.50;97041.00;;;;5028485;28;20534;-72
2023/12/29 09:07:08;;;;;;;28.27;25.67;;;;;3.70;97042.00;;;;5032399;28;20443;-72
2023/12/29 09:09:57;;;;;;;37.17;33.23;;;;;4.40;97042.00;;;;5036584;28;20421;-73
2023/12/29 09:12:48;;;;;;;49.03;38.93;;;;;4.50;97038.00;;;;5031765;28;20428;-72
2023/12/29 09:15:37;;;;;;;60.13;53.53;;;;;5.00;97045.00;;;;5024521;28;20447;-72
2023/12/29 09:18:26;;;;;;;57.03;43.07;;;;;4.90;97046.00;;;;5028324;28;20445;-73
2023/12/29 09:21:15;;;;;;;64.03;46.60;;;;;5.00;97040.00;;;;5026419;28;20439;-73
2023/12/29 09:24:05;;;;;;;41.67;36.03;;;;;5.50;97033.00;;;;5020480;28;20463;-73
2023/12/29 09:26:54;;;;;;;49.90;41.37;;;;;5.90;97039.00;;;;5034870;28;20204;-72
2023/12/29 09:29:45;;;;;;;44.43;39.63;;;;;6.00;97042.00;;;;5033712;28;20202;-72
2023/12/29 09:32:34;;;;;;;61.90;46.50;;;;;5.90;97041.00;;;;5029322;28;20237;-73
2023/12/29 09:35:24;;;;;;;57.80;44.90;;;;;6.00;97027.00;;;;5038536;28;20211;-72
2023/12/29 09:38:14;;;;;;;80.03;55.33;;;;;6.40;97038.00;;;;5029925;28;20231;-72
2023/12/29 09:41:07;;;;;;;52.73;43.80;;;;;6.80;97042.00;;;;5028842;28;20204;-72
2023/12/29 09:43:57;;;;;;;41.53;37.27;;;;;6.80;97032.00;;;;5033828;28;20231;-72
2023/12/29 09:46:51;;;;;;;66.40;50.87;;;;;6.50;97032.00;;;;5023265;28;20594;-73
2023/12/29 09:49:41;;;;;;;59.53;48.80;;;;;7.20;97027.00;;;;5024805;28;20209;-72
2023/12/29 09:52:31;;;;;;;57.20;48.60;;;;;7.30;97028.00;;;;5023617;28;20228;-72
2023/12/29 09:55:20;;;;;;;78.00;56.70;;;;;7.80;97023.00;;;;5028932;28;20201;-71
2023/12/29 09:58:10;;;;;;;57.17;49.63;;;;;7.60;97021.00;;;;5023937;28;20249;-72
2023/12/29 10:01:00;;;;;;;52.67;46.97;;;;;7.20;97021.00;;;;5026153;28;20206;-73
2023/12/29 10:03:50;;;;;;;60.90;50.50;;;;;7.60;97019.00;;;;5024832;28;20229;-72
2023/12/29 10:06:45;;;;;;;54.87;48.57;;;;;8.20;97013.00;;;;5027605;28;20213;-71
2023/12/29 10:09:36;;;;;;;30.80;27.80;;;;;8.30;97006.00;;;;5027303;28;20283;-71
2023/12/29 10:12:26;;;;;;;44.43;39.23;;;;;8.20;97002.00;;;;5026561;28;20665;-72
2023/12/29 10:15:21;;;;;;;48.70;41.77;;;;;8.00;96997.00;;;;5022453;28;20197;-72
2023/12/29 10:18:19;;;;;;;61.90;50.97;;;;;7.90;96993.00;;;;5021547;28;20225;-72
2023/12/29 10:21:16;;;;;;;49.93;44.77;;;;;8.30;97003.00;;;;5026380;28;20205;-72
2023/12/29 10:24:11;;;;;;;86.73;64.70;;;;;8.90;96996.00;;;;5020586;28;20663;-72
2023/12/29 10:27:00;;;;;;;90.30;66.87;;;;;9.90;97002.00;;;;5026556;28;20201;-73
2023/12/29 10:29:50;;;;;;;95.33;71.97;;;;;9.70;97000.00;;;;5023332;28;20209;-73
2023/12/29 10:32:39;;;;;;;72.50;63.80;;;;;10.30;96997.00;;;;5021772;28;20206;-72
2023/12/29 10:35:28;;;;;;;70.90;63.45;;;;;10.40;97001.00;;;;5023168;28;20746;-72
2023/12/29 10:38:18;;;;;;;74.90;66.77;;;;;10.50;96986.00;;;;5027451;28;20225;-73
2023/12/29 10:41:15;;;;;;;81.17;72.87;;;;;10.40;96990.00;;;;5026880;28;20208;-72
2023/12/29 10:44:09;;;;;;;85.57;76.57;;;;;11.00;96980.00;;;;5024667;28;20228;-73
2023/12/29 10:46:58;;;;;;;99.93;85.17;;;;;10.00;96972.00;;;;5014813;28;20221;-74
2023/12/29 10:49:47;;;;;;;78.37;70.93;;;;;10.60;96978.00;;;;5030317;28;20215;-73
2023/12/29 10:52:37;;;;;;;70.67;64.37;;;;;11.00;96976.00;;;;5027879;28;20876;-71
2023/12/29 10:55:28;;;;;;;70.60;63.93;;;;;10.60;96969.00;;;;5025283;28;20213;-72
2023/12/29 10:58:19;;;;;;;78.43;70.97;;;;;10.80;96965.00;;;;5032711;28;20614;-72
2023/12/29 11:01:19;;;;;;;73.63;67.07;;;;;10.90;96963.00;;;;5026057;28;20232;-73
2023/12/29 11:04:09;;;;;;;78.17;70.30;;;;;12.00;96953.00;;;;5019177;28;20228;-72
2023/12/29 11:06:58;;;;;;;81.43;73.73;;;;;11.90;96943.00;;;;5025856;28;20217;-73
2023/12/29 11:09:48;;;;;;;88.73;80.80;;;;;12.10;96942.00;;;;5024616;28;20261;-73
2023/12/29 11:12:39;;;;;;;98.93;89.23;;;;;13.00;96937.00;;;;5024844;28;20674;-72
2023/12/29 11:15:29;;;;;;;113.37;101.60;;;;;13.50;96943.00;;;;5014697;28;20214;-72
2023/12/29 11:18:20;;;;;;;101.20;92.00;;;;;14.40;96940.00;;;;5023512;28;20217;-72
2023/12/29 11:21:10;;;;;;;62.63;58.73;;;;;14.30;96940.00;;;;5025539;28;20220;-72
2023/12/29 11:23:59;;;;;;;45.13;42.23;;;;;13.50;96919.00;;;;5024095;28;20201;-72
2023/12/29 11:26:49;;;;;;;38.40;36.13;;;;;14.50;96921.00;;;;5028104;28;20205;-71
2023/12/29 11:29:39;;;;;;;48.73;45.07;;;;;15.30;96916.00;;;;5025558;28;20229;-72
2023/12/29 11:32:35;;;;;;;49.73;46.17;;;;;15.20;96909.00;;;;5024028;28;20676;-71
2023/12/29 11:35:29;;;;;;;60.40;54.93;;;;;14.60;96906.00;;;;5020966;28;20697;-71
2023/12/29 11:38:45;;;;;;;63.20;57.83;;;;;14.80;96899.00;;;;5022373;28;20229;-71
2023/12/29 11:41:40;;;;;;;54.40;51.17;;;;;14.90;96906.00;;;;5023633;28;20212;-71
2023/12/29 11:44:30;;;;;;;75.93;71.40;;;;;13.60;96895.00;;;;5024607;28;20299;-71
2023/12/29 11:47:41;;;;;;;79.67;73.63;;;;;14.50;96888.00;;;;5024434;28;20216;-71
2023/12/29 11:50:31;;;;;;;104.90;97.70;;;;;14.70;96883.00;;;;5008152;28;20205;-71
2023/12/29 11:53:33;;;;;;;124.53;115.37;;;;;14.70;96889.00;;;;5021519;28;20205;-70
2023/12/29 11:56:23;;;;;;;114.60;106.10;;;;;15.30;96890.00;;;;5026932;28;20612;-71
2023/12/29 11:59:16;;;;;;;69.73;64.77;;;;;15.80;96898.00;;;;5026139;28;20229;-70
2023/12/29 12:02:08;;;;;;;79.97;74.67;;;;;15.70;96890.00;;;;5027858;28;20213;-70
2023/12/29 12:04:58;;;;;;;105.93;99.63;;;;;15.70;96886.00;;;;5025972;28;20623;-71
2023/12/29 12:08:08;;;;;;;123.13;114.73;;;;;14.10;96881.00;;;;5027224;28;20237;-71
2023/12/29 12:10:58;;;;;;;128.37;119.97;;;;;14.90;96882.00;;;;5034114;28;20205;-71
2023/12/29 12:13:48;;;;;;;130.00;121.20;;;;;15.00;96882.00;;;;5025681;28;20207;-70
2023/12/29 12:16:51;;;;;;;73.60;69.00;;;;;15.00;96879.00;;;;5039795;28;20208;-71
2023/12/29 12:19:41;;;;;;;118.03;110.03;;;;;14.80;96882.00;;;;5032115;28;20693;-70
2023/12/29 12:22:33;;;;;;;102.70;95.80;;;;;14.90;96883.00;;;;5031706;28;20209;-70
2023/12/29 12:25:23;;;;;;;85.57;79.97;;;;;14.70;96873.00;;;;5026591;28;20227;-70
2023/12/29 12:28:15;;;;;;;88.70;83.23;;;;;14.60;96875.00;;;;5031577;28;20271;-70
2023/12/29 12:31:08;;;;;;;102.27;95.77;;;;;14.20;96863.00;;;;5025908;28;20604;-71
2023/12/29 12:34:00;;;;;;;77.83;72.50;;;;;14.30;96869.00;;;;5027642;28;20291;-70
2023/12/29 12:36:52;;;;;;;122.33;113.20;;;;;14.60;96866.00;;;;5022120;28;20585;-71
2023/12/29 12:39:43;;;;;;;93.40;87.60;;;;;14.90;96874.00;;;;5034976;28;20888;-71
2023/12/29 12:42:33;;;;;;;16.53;14.20;;;;;15.10;96871.00;;;;5028251;28;20668;-70
2023/12/29 12:45:23;;;;;;;19.87;11.33;;;;;15.30;96878.00;;;;5026753;28;20228;-70
2023/12/29 12:48:16;;;;;;;13.30;7.20;;;;;15.40;96873.00;;;;5024294;28;20224;-70
2023/12/29 12:51:06;;;;;;;12.07;6.60;;;;;15.10;96882.00;;;;5026759;28;20666;-70
2023/12/29 12:53:55;;;;;;;11.07;6.03;;;;;14.50;96876.00;;;;5029892;28;20208;-70
2023/12/29 12:56:46;;;;;;;11.90;5.10;;;;;14.50;96878.00;;;;5027553;28;20197;-70
2023/12/29 12:59:35;;;;;;;10.00;4.50;;;;;14.80;96870.00;;;;5026811;28;20319;-70
2023/12/29 13:02:25;;;;;;;18.73;7.17;;;;;14.60;96868.00;;;;5036056;28;20581;-70
2023/12/29 13:05:16;;;;;;;11.97;4.73;;;;;14.40;96864.00;;;;5029798;28;20229;-70
2023/12/29 13:08:06;;;;;;;8.67;3.73;;;;;14.60;96864.00;;;;5029011;28;20579;-70
2023/12/29 13:10:55;;;;;;;12.33;4.77;;;;;14.90;96866.00;;;;5033776;28;20204;-70
2023/12/29 13:13:46;;;;;;;15.07;5.43;;;;;14.70;96871.00;;;;5029884;28;20205;-70
2023/12/29 13:16:36;;;;;;;10.70;4.17;;;;;14.70;96871.00;;;;5025679;28;20790;-70
2023/12/29 13:19:27;;;;;;;15.90;5.67;;;;;14.40;96866.00;;;;5030434;28;20225;-70
2023/12/29 13:22:16;;;;;;;23.33;7.53;;;;;14.40;96871.00;;;;5027812;28;20674;-70
2023/12/29 13:25:08;;;;;;;14.30;4.93;;;;;14.50;96868.00;;;;5029449;28;20197;-70
2023/12/29 13:27:58;;;;;;;12.07;4.50;;;;;13.90;96866.00;;;;5039505;28;20237;-70
2023/12/29 13:30:49;;;;;;;16.40;5.67;;;;;13.90;96874.00;;;;5024190;28;20585;-70
2023/12/29 13:33:46;;;;;;;22.37;7.17;;;;;13.10;96872.00;;;;5028550;28;20682;-71
2023/12/29 13:36:38;;;;;;;4.80;2.13;;;;;11.50;96859.00;;;;5028826;28;20725;-70
2023/12/29 13:39:34;;;;;;;16.87;5.43;;;;;11.30;96863.00;;;;5031979;28;20251;-70
2023/12/29 13:42:24;;;;;;;16.27;5.13;;;;;11.50;96858.00;;;;5029710;28;20216;-70
2023/12/29 13:45:14;;;;;;;13.90;4.50;;;;;11.60;96846.00;;;;5029336;28;20257;-71
2023/12/29 13:48:06;;;;;;;6.23;2.20;;;;;11.40;96855.00;;;;5032463;28;20228;-71
2023/12/29 13:50:56;;;;;;;10.87;3.47;;;;;10.00;96854.00;;;;5030920;28;20197;-71
2023/12/29 13:53:45;;;;;;;11.47;3.80;;;;;10.10;96850.00;;;;5037077;28;20193;-71
2023/12/29 13:56:34;;;;;;;8.87;3.00;;;;;10.20;96847.00;;;;5021617;28;20204;-71
2023/12/29 13:59:31;;;;;;;16.83;5.30;;;;;9.70;96842.00;;;;5030779;28;20225;-70
2023/12/29 14:02:26;;;;;;;16.60;5.17;;;;;10.50;96847.00;;;;5033641;28;20216;-70
2023/12/29 14:05:21;;;;;;;15.27;4.83;;;;;11.00;96850.00;;;;5030202;28;20201;-70